Time;durP1;ratioP1;P1;durP2;ratioP2;P2;SDS_P1;SDS_P2;PMS_P1;PMS_P2;Temp;Humidity;BMP_temperature;BMP_pressure;BME280_temperature;BME280_humidity;BME280_pressure;Samples;Min_cycle;Max_cycle;Signal;HPM_P1;HPM_P2
2021/09/28 00:02:21;;;;;;;7.77;3.60;;;;;;;13.73;100.00;101495.38;7374571;19;20426;-57
2021/09/28 00:04:51;;;;;;;9.13;3.53;;;;;;;13.72;100.00;101501.38;7403066;19;20384;-59
2021/09/28 00:07:20;;;;;;;7.90;5.10;;;;;;;13.69;100.00;101503.88;7395561;19;20419;-58
2021/09/28 00:09:52;;;;;;;14.77;4.53;;;;;;;13.57;100.00;101510.31;7403199;19;20675;-57
2021/09/28 00:12:22;;;;;;;8.23;4.10;;;;;;;13.68;100.00;101522.84;7392258;19;20411;-56
2021/09/28 00:14:52;;;;;;;16.90;4.90;;;;;;;13.67;100.00;101528.81;7407242;19;20410;-57
2021/09/28 00:17:24;;;;;;;8.17;4.20;;;;;;;13.62;100.00;101533.84;7398805;19;20413;-57
2021/09/28 00:19:53;;;;;;;11.63;4.67;;;;;;;13.57;100.00;101525.88;7401966;19;20388;-58
2021/09/28 00:22:23;;;;;;;9.20;4.07;;;;;;;13.52;100.00;101537.75;7396024;19;20443;-56
2021/09/28 00:24:55;;;;;;;12.80;4.23;;;;;;;13.54;100.00;101530.91;7402902;19;20402;-60
2021/09/28 00:27:24;;;;;;;9.73;4.37;;;;;;;13.48;100.00;101541.91;7394727;19;20411;-58
2021/09/28 00:29:54;;;;;;;7.73;3.90;;;;;;;13.50;100.00;101534.22;7402442;19;20456;-58
2021/09/28 00:32:23;;;;;;;10.20;3.77;;;;;;;13.43;100.00;101539.94;7398663;19;20429;-58
2021/09/28 00:34:53;;;;;;;13.77;3.63;;;;;;;13.35;100.00;101532.69;7401459;19;20665;-57
2021/09/28 00:37:23;;;;;;;11.50;4.27;;;;;;;13.37;100.00;101536.25;7394484;19;20427;-57
2021/09/28 00:39:55;;;;;;;9.53;3.70;;;;;;;13.42;100.00;101535.53;7402231;19;20931;-57
2021/09/28 00:42:24;;;;;;;11.00;4.07;;;;;;;13.40;100.00;101532.91;7394646;19;20800;-55
2021/09/28 00:44:54;;;;;;;15.17;4.13;;;;;;;13.42;100.00;101540.72;7402289;19;20451;-58
2021/09/28 00:47:23;;;;;;;11.27;4.03;;;;;;;13.33;100.00;101529.16;7394534;19;20491;-57
2021/09/28 00:49:53;;;;;;;15.77;4.50;;;;;;;13.36;100.00;101534.50;7401721;19;20850;-56
2021/09/28 00:52:23;;;;;;;9.30;3.77;;;;;;;13.31;100.00;101541.19;7394478;19;20417;-58
2021/09/28 00:54:55;;;;;;;10.73;3.83;;;;;;;13.33;100.00;101547.31;7401072;19;20374;-57
2021/09/28 00:57:24;;;;;;;12.50;4.50;;;;;;;13.32;100.00;101545.53;7393573;19;20421;-56
2021/09/28 00:59:55;;;;;;;13.20;4.20;;;;;;;13.31;100.00;101548.94;7401544;19;20388;-58
2021/09/28 01:02:24;;;;;;;15.63;4.20;;;;;;;13.32;100.00;101555.00;7394099;19;20921;-55
2021/09/28 01:04:54;;;;;;;15.67;6.10;;;;;;;13.33;100.00;101549.88;7401572;19;20391;-53
2021/09/28 01:07:23;;;;;;;8.80;3.90;;;;;;;13.28;100.00;101563.47;7393584;19;20510;-59
2021/09/28 01:09:55;;;;;;;15.50;4.87;;;;;;;13.30;100.00;101557.56;7401219;19;20383;-57
2021/09/28 01:12:25;;;;;;;12.03;4.60;;;;;;;13.20;100.00;101556.25;7393796;19;20427;-54
2021/09/28 01:14:54;;;;;;;12.67;4.77;;;;;;;13.12;100.00;101567.97;7401263;19;20739;-58
2021/09/28 01:17:24;;;;;;;12.53;4.80;;;;;;;13.16;100.00;101566.41;7397048;19;20486;-59
2021/09/28 01:19:53;;;;;;;10.87;5.10;;;;;;;13.22;100.00;101579.63;7400907;19;20404;-58
2021/09/28 01:22:25;;;;;;;15.83;5.10;;;;;;;13.30;100.00;101573.09;7393463;19;20433;-56
2021/09/28 01:24:55;;;;;;;14.50;5.33;;;;;;;13.15;100.00;101580.19;7401060;19;20392;-59
2021/09/28 01:30:08;;;;;;;16.30;5.80;;;;;;;13.29;100.00;101575.63;7400088;19;20491;-58
2021/09/28 01:32:37;;;;;;;12.80;5.23;;;;;;;13.12;100.00;101582.66;7391191;19;20441;-58
2021/09/28 01:35:08;;;;;;;38.07;6.90;;;;;;;13.19;100.00;101589.88;7399918;19;20398;-58
2021/09/28 01:37:40;;;;;;;19.00;6.00;;;;;;;13.23;100.00;101582.28;7392374;19;20419;-58
2021/09/28 01:40:10;;;;;;;20.10;7.53;;;;;;;13.23;100.00;101586.59;7400177;19;20391;-59
2021/09/28 01:42:40;;;;;;;11.00;6.10;;;;;;;13.19;100.00;101589.88;7392486;19;20427;-58
2021/09/28 01:45:10;;;;;;;21.53;7.33;;;;;;;13.14;100.00;101588.78;7400373;19;20406;-55
2021/09/28 01:47:40;;;;;;;19.73;6.50;;;;;;;13.24;100.00;101593.56;7392696;19;20693;-58
2021/09/28 01:50:11;;;;;;;13.33;6.00;;;;;;;13.28;100.00;101595.44;7400274;19;20390;-57
2021/09/28 01:52:43;;;;;;;15.80;6.40;;;;;;;13.27;100.00;101591.09;7392547;19;20423;-57
2021/09/28 01:55:13;;;;;;;15.30;6.70;;;;;;;13.30;100.00;101592.94;7399166;19;20838;-55
2021/09/28 01:57:42;;;;;;;11.83;5.87;;;;;;;13.32;100.00;101594.78;7392266;19;20512;-59
2021/09/28 02:00:13;;;;;;;15.87;6.87;;;;;;;13.29;100.00;101589.47;7398746;19;20677;-58
2021/09/28 02:02:43;;;;;;;14.40;7.43;;;;;;;13.23;100.00;101596.97;7380302;19;20903;-59
2021/09/28 02:05:12;;;;;;;14.83;7.20;;;;;;;13.22;100.00;101592.59;7399597;19;20646;-54
2021/09/28 02:07:44;;;;;;;13.73;6.90;;;;;;;13.09;100.00;101597.22;7391728;19;20427;-56
2021/09/28 02:10:14;;;;;;;18.07;6.70;;;;;;;13.27;100.00;101596.28;7399419;19;20380;-56
2021/09/28 02:12:43;;;;;;;17.60;7.97;;;;;;;13.18;100.00;101593.28;7391604;19;20427;-57
2021/09/28 02:15:13;;;;;;;13.40;6.43;;;;;;;13.13;100.00;101595.66;7398825;19;20455;-56
2021/09/28 02:17:44;;;;;;;11.97;6.97;;;;;;;13.17;100.00;101588.94;7391435;19;20426;-55
2021/09/28 02:20:13;;;;;;;17.07;7.03;;;;;;;13.06;100.00;101591.91;7403270;19;20407;-58
2021/09/28 02:22:45;;;;;;;28.10;10.50;;;;;;;13.10;100.00;101599.03;7390712;19;20420;-56
2021/09/28 02:25:18;;;;;;;17.23;6.90;;;;;;;13.08;100.00;101590.28;7399233;19;20402;-56
2021/09/28 02:27:48;;;;;;;13.80;6.30;;;;;;;13.15;100.00;101599.22;7394586;19;20510;-56
2021/09/28 02:30:18;;;;;;;14.80;6.23;;;;;;;13.07;100.00;101597.97;7398812;19;20382;-54
2021/09/28 02:32:47;;;;;;;13.63;5.40;;;;;;;13.04;100.00;101596.16;7372908;19;20435;-57
2021/09/28 02:35:17;;;;;;;15.17;6.70;;;;;;;13.17;100.00;101592.38;7398269;19;20712;-55
2021/09/28 02:37:49;;;;;;;35.10;15.73;;;;;;;13.24;100.00;101593.56;7390644;19;20432;-55
2021/09/28 02:40:18;;;;;;;25.90;11.87;;;;;;;13.17;100.00;101597.56;7398678;19;20844;-57
2021/09/28 02:42:49;;;;;;;14.90;6.57;;;;;;;13.14;100.00;101593.97;7392885;19;20494;-55
2021/09/28 02:45:19;;;;;;;15.87;6.90;;;;;;;13.00;100.00;101593.34;7406393;19;20443;-54
2021/09/28 02:47:48;;;;;;;14.00;6.77;;;;;;;13.01;100.00;101596.00;7398497;19;20911;-57
2021/09/28 02:50:18;;;;;;;20.80;7.13;;;;;;;13.03;100.00;101596.06;7405929;19;20463;-59
2021/09/28 02:52:50;;;;;;;13.20;6.83;;;;;;;13.02;100.00;101592.59;7397607;19;20423;-58
2021/09/28 02:55:19;;;;;;;19.77;6.07;;;;;;;12.99;100.00;101599.34;7405417;19;20390;-58
2021/09/28 02:57:49;;;;;;;19.00;6.13;;;;;;;12.98;100.00;101601.06;7398319;19;20705;-58
2021/09/28 03:00:19;;;;;;;12.20;6.43;;;;;;;12.96;100.00;101603.56;7405662;19;20391;-58
2021/09/28 03:02:48;;;;;;;17.67;6.17;;;;;;;12.96;100.00;101605.25;7401100;19;20430;-59
2021/09/28 03:05:19;;;;;;;18.23;6.37;;;;;;;12.88;100.00;101609.22;7405636;19;20857;-58
2021/09/28 03:07:51;;;;;;;15.40;6.80;;;;;;;12.86;100.00;101606.53;7397291;19;20925;-59
2021/09/28 03:10:20;;;;;;;16.87;6.57;;;;;;;12.73;100.00;101620.66;7405439;19;20456;-57
2021/09/28 03:12:50;;;;;;;16.87;5.90;;;;;;;12.62;100.00;101614.94;7397396;19;20490;-56
2021/09/28 03:15:19;;;;;;;15.13;6.97;;;;;;;12.72;100.00;101624.03;7405138;19;20459;-59
2021/09/28 03:17:49;;;;;;;14.27;7.20;;;;;;;12.67;100.00;101618.63;7398614;19;20455;-59
2021/09/28 03:20:18;;;;;;;21.13;7.17;;;;;;;12.56;100.00;101617.25;7405117;19;20451;-57
2021/09/28 03:22:50;;;;;;;16.33;7.33;;;;;;;12.60;100.00;101628.66;7398125;19;20431;-55
2021/09/28 03:25:19;;;;;;;13.37;7.37;;;;;;;12.54;100.00;101624.94;7404973;19;20395;-57
2021/09/28 03:27:49;;;;;;;23.63;7.97;;;;;;;12.52;100.00;101626.56;7396678;19;20945;-58
2021/09/28 03:30:18;;;;;;;16.73;8.07;;;;;;;12.58;100.00;101628.56;7404680;19;20410;-54
2021/09/28 03:32:48;;;;;;;13.77;7.80;;;;;;;12.55;100.00;101631.00;7396214;19;20447;-57
2021/09/28 03:35:18;;;;;;;16.87;7.90;;;;;;;12.51;100.00;101629.97;7404704;19;20436;-59
2021/09/28 03:37:50;;;;;;;24.27;8.50;;;;;;;12.41;100.00;101638.13;7396153;19;20430;-59
2021/09/28 03:40:22;;;;;;;17.60;9.07;;;;;;;12.36;100.00;101639.59;7404397;19;20388;-56
2021/09/28 03:42:52;;;;;;;19.33;8.10;;;;;;;12.38;100.00;101645.72;7396562;19;20421;-57
2021/09/28 03:45:21;;;;;;;20.73;9.73;;;;;;;12.47;100.00;101645.28;7404273;19;20390;-57
2021/09/28 03:47:51;;;;;;;26.00;11.40;;;;;;;12.53;100.00;101651.66;7397326;19;20419;-54
2021/09/28 03:50:20;;;;;;;19.13;10.50;;;;;;;12.48;100.00;101645.38;7403951;19;20398;-55
2021/09/28 03:52:50;;;;;;;21.93;9.53;;;;;;;12.39;100.00;101657.84;7396300;19;20435;-54
2021/09/28 03:55:22;;;;;;;17.87;8.93;;;;;;;12.31;100.00;101654.00;7402108;19;20413;-58
2021/09/28 03:57:52;;;;;;;21.27;12.10;;;;;;;12.32;100.00;101663.53;7396112;19;20748;-57
2021/09/28 04:00:24;;;;;;;19.47;9.20;;;;;;;12.22;100.00;101667.38;7403733;19;21160;-58
2021/09/28 04:02:53;;;;;;;19.80;9.83;;;;;;;12.22;100.00;101673.44;7376191;19;20438;-58
2021/09/28 04:05:23;;;;;;;25.93;8.80;;;;;;;12.20;100.00;101667.28;7403223;19;20456;-56
2021/09/28 04:07:52;;;;;;;24.77;9.00;;;;;;;12.18;100.00;101671.50;7396155;19;20495;-58
2021/09/28 04:10:24;;;;;;;17.00;9.13;;;;;;;12.15;100.00;101674.84;7403221;19;20394;-55
2021/09/28 04:12:54;;;;;;;17.77;8.50;;;;;;;12.09;100.00;101678.78;7395225;19;20403;-55
2021/09/28 04:15:25;;;;;;;21.43;9.00;;;;;;;12.13;100.00;101689.41;7402770;19;20455;-58
2021/09/28 04:17:55;;;;;;;15.07;7.80;;;;;;;12.01;100.00;101687.03;7384197;19;20752;-56
2021/09/28 04:20:24;;;;;;;13.70;8.53;;;;;;;12.06;100.00;101689.00;7402840;19;20394;-59
2021/09/28 04:22:54;;;;;;;18.70;9.07;;;;;;;12.08;100.00;101685.69;7395010;19;20885;-58
2021/09/28 04:25:26;;;;;;;21.10;9.03;;;;;;;12.04;100.00;101685.47;7405700;19;20424;-58
2021/09/28 04:27:55;;;;;;;23.10;10.87;;;;;;;12.14;100.00;101692.84;7395774;19;20410;-57
2021/09/28 04:30:25;;;;;;;28.73;12.23;;;;;;;12.45;100.00;101696.97;7403684;19;20451;-59
2021/09/28 04:32:55;;;;;;;30.90;11.57;;;;;;;12.58;100.00;101701.06;7398432;19;20438;-58
2021/09/28 04:35:24;;;;;;;22.40;10.10;;;;;;;12.41;100.00;101706.28;7401877;19;20901;-56
2021/09/28 04:37:54;;;;;;;16.87;8.70;;;;;;;12.31;100.00;101698.00;7393240;19;20429;-56
2021/09/28 04:40:26;;;;;;;16.63;8.47;;;;;;;12.22;100.00;101703.59;7402377;19;20402;-59
2021/09/28 04:42:55;;;;;;;16.23;8.50;;;;;;;12.19;100.00;101704.31;7394586;19;20479;-57
2021/09/28 04:45:25;;;;;;;24.07;10.00;;;;;;;12.18;100.00;101701.66;7401727;19;20380;-57
2021/09/28 04:47:54;;;;;;;19.03;7.80;;;;;;;12.12;100.00;101704.84;7393829;19;20424;-59
2021/09/28 04:50:24;;;;;;;20.17;8.60;;;;;;;12.04;100.00;101713.91;7401977;19;20388;-58
2021/09/28 04:52:53;;;;;;;15.43;9.23;;;;;;;12.11;100.00;101716.88;7393011;19;20682;-58
2021/09/28 04:55:25;;;;;;;11.43;7.60;;;;;;;12.05;100.00;101715.69;7401493;19;20410;-57
2021/09/28 04:57:55;;;;;;;17.00;8.33;;;;;;;12.11;100.00;101726.34;7393052;19;20443;-59
2021/09/28 05:00:24;;;;;;;27.80;9.60;;;;;;;12.24;100.00;101725.25;7401583;19;20468;-59
2021/09/28 05:02:54;;;;;;;18.03;7.77;;;;;;;11.99;100.00;101726.56;7393599;19;20427;-58
2021/09/28 05:05:23;;;;;;;14.10;6.70;;;;;;;11.84;100.00;101731.84;7401359;19;20398;-57
2021/09/28 05:07:53;;;;;;;27.23;9.30;;;;;;;11.87;100.00;101732.00;7394059;19;20437;-59
2021/09/28 05:10:25;;;;;;;15.77;8.37;;;;;;;11.86;100.00;101745.72;7404643;19;20440;-57
2021/09/28 05:12:55;;;;;;;20.97;10.20;;;;;;;12.21;100.00;101743.22;7393254;19;20782;-57
2021/09/28 05:15:24;;;;;;;22.50;12.30;;;;;;;12.05;100.00;101741.56;7400489;19;20467;-59
2021/09/28 05:17:53;;;;;;;23.30;10.67;;;;;;;11.88;100.00;101744.09;7396387;19;20431;-58
2021/09/28 05:20:23;;;;;;;13.00;6.03;;;;;;;11.73;100.00;101745.09;7401024;19;20384;-57
2021/09/28 05:22:52;;;;;;;22.50;9.20;;;;;;;11.72;100.00;101750.16;7393458;19;20419;-56
2021/09/28 05:25:22;;;;;;;19.23;7.17;;;;;;;11.59;100.00;101756.41;7400634;19;20468;-58
2021/09/28 05:27:54;;;;;;;30.33;13.53;;;;;;;11.56;100.00;101767.47;7393715;19;20427;-55
2021/09/28 05:30:24;;;;;;;17.70;7.17;;;;;;;11.57;100.00;101764.06;7402103;19;20459;-58
2021/09/28 05:32:54;;;;;;;15.23;6.10;;;;;;;11.56;100.00;101763.97;7393489;19;20411;-53
2021/09/28 05:35:23;;;;;;;15.50;6.40;;;;;;;11.49;100.00;101767.94;7400215;19;20424;-59
2021/09/28 05:37:53;;;;;;;8.77;5.73;;;;;;;11.58;100.00;101776.19;7391359;19;20427;-57
2021/09/28 05:40:22;;;;;;;15.97;5.70;;;;;;;11.52;100.00;101773.25;7400305;19;20677;-56
2021/09/28 05:42:54;;;;;;;13.40;5.70;;;;;;;11.43;100.00;101781.41;7392660;19;20437;-57
2021/09/28 05:45:24;;;;;;;21.63;8.60;;;;;;;11.56;100.00;101787.22;7399655;19;20447;-57
2021/09/28 05:47:54;;;;;;;22.37;8.67;;;;;;;11.56;100.00;101790.72;7393252;19;20499;-57
2021/09/28 05:50:23;;;;;;;13.90;7.83;;;;;;;11.52;100.00;101787.88;7399698;19;20846;-56
2021/09/28 05:52:53;;;;;;;18.77;6.60;;;;;;;11.46;100.00;101788.44;7392350;19;20451;-58
2021/09/28 05:55:23;;;;;;;13.80;5.27;;;;;;;11.45;100.00;101795.28;7399391;19;20384;-56
2021/09/28 05:57:55;;;;;;;15.93;5.30;;;;;;;11.44;100.00;101797.81;7391721;19;20447;-58
2021/09/28 06:00:25;;;;;;;14.80;6.80;;;;;;;11.51;100.00;101797.31;7399610;19;20634;-57
2021/09/28 06:02:54;;;;;;;21.17;6.60;;;;;;;11.69;100.00;101804.31;7392285;19;20459;-57
2021/09/28 06:05:24;;;;;;;12.13;5.00;;;;;;;11.55;100.00;101800.97;7398922;19;20682;-58
2021/09/28 06:07:54;;;;;;;42.60;29.07;;;;;;;11.74;100.00;101801.16;7392379;19;20447;-59
2021/09/28 06:10:23;;;;;;;53.67;31.53;;;;;;;11.72;100.00;101807.94;7399307;19;20390;-56
2021/09/28 06:12:55;;;;;;;25.40;13.90;;;;;;;11.82;100.00;101803.25;7392112;19;20681;-59
2021/09/28 06:15:26;;;;;;;12.63;5.03;;;;;;;11.75;100.00;101804.63;7399556;19;20677;-58
2021/09/28 06:17:57;;;;;;;18.70;6.17;;;;;;;11.67;100.00;101811.97;7390782;19;20435;-59
2021/09/28 06:20:26;;;;;;;16.13;5.30;;;;;;;11.62;100.00;101813.41;7398777;19;20724;-58
2021/09/28 06:22:56;;;;;;;11.97;6.10;;;;;;;11.67;100.00;101817.16;7391408;19;20478;-57
2021/09/28 06:25:25;;;;;;;11.37;4.43;;;;;;;11.75;100.00;101823.59;7399650;19;20400;-59
2021/09/28 06:27:57;;;;;;;21.00;6.53;;;;;;;11.77;100.00;101821.13;7391298;19;20495;-57
2021/09/28 06:30:27;;;;;;;14.73;5.00;;;;;;;11.87;100.00;101823.41;7398799;19;20912;-58
2021/09/28 06:32:56;;;;;;;11.20;5.47;;;;;;;11.95;100.00;101828.94;7391598;19;20748;-59
2021/09/28 06:35:26;;;;;;;13.13;4.73;;;;;;;11.98;100.00;101830.81;7398085;19;20396;-58
2021/09/28 06:37:56;;;;;;;8.67;4.20;;;;;;;11.85;100.00;101822.41;7390724;19;20443;-59
2021/09/28 06:40:25;;;;;;;9.10;3.73;;;;;;;11.89;100.00;101831.22;7398355;19;20472;-59
2021/09/28 06:42:57;;;;;;;13.53;5.67;;;;;;;12.16;100.00;101836.13;7391061;19;20411;-59
2021/09/28 06:45:27;;;;;;;11.53;4.30;;;;;;;11.96;100.00;101840.19;7397924;19;20667;-58
2021/09/28 06:47:56;;;;;;;8.50;4.60;;;;;;;11.87;100.00;101838.00;7391810;19;20891;-59
2021/09/28 06:50:26;;;;;;;11.03;4.80;;;;;;;12.17;100.00;101837.91;7398153;19;20404;-57
2021/09/28 06:52:56;;;;;;;9.43;5.17;;;;;;;12.29;100.00;101840.22;7390794;19;20408;-58
2021/09/28 06:55:25;;;;;;;14.73;4.10;;;;;;;12.31;100.00;101845.50;7397446;19;20398;-58
2021/09/28 06:57:57;;;;;;;23.93;5.30;;;;;;;12.35;100.00;101850.03;7390544;19;20443;-58
2021/09/28 07:00:27;;;;;;;12.63;5.27;;;;;;;12.16;100.00;101841.31;7398000;19;20443;-55
2021/09/28 07:02:56;;;;;;;14.60;4.70;;;;;;;12.17;100.00;101834.41;7390218;19;20427;-58
2021/09/28 07:05:26;;;;;;;11.50;4.53;;;;;;;12.17;100.00;101852.53;7397256;19;20392;-59
2021/09/28 07:07:55;;;;;;;34.63;17.10;;;;;;;12.32;100.00;101842.09;7390531;19;20415;-56
2021/09/28 07:10:25;;;;;;;16.87;5.83;;;;;;;12.42;100.00;101842.63;7397721;19;20732;-57
2021/09/28 07:12:57;;;;;;;14.03;7.77;;;;;;;12.46;100.00;101843.69;7390159;19;21216;-59
2021/09/28 07:15:27;;;;;;;13.17;4.53;;;;;;;12.47;100.00;101850.66;7398905;19;20400;-57
2021/09/28 07:17:56;;;;;;;20.83;9.37;;;;;;;12.68;100.00;101848.25;7390338;19;20498;-59
2021/09/28 07:20:26;;;;;;;16.17;8.20;;;;;;;12.63;100.00;101846.25;7397472;19;20715;-59
2021/09/28 07:22:55;;;;;;;15.27;5.40;;;;;;;12.61;100.00;101847.88;7389894;19;20420;-56
2021/09/28 07:25:25;;;;;;;15.03;6.77;;;;;;;12.62;100.00;101847.94;7397030;19;20459;-56
2021/09/28 07:27:58;;;;;;;19.63;9.17;;;;;;;12.65;100.00;101847.22;7391116;19;20423;-57
2021/09/28 07:30:28;;;;;;;14.80;7.27;;;;;;;12.74;100.00;101841.59;7401922;19;20384;-58
2021/09/28 07:32:59;;;;;;;17.57;6.67;;;;;;;12.85;100.00;101842.13;7377599;19;20792;-56
2021/09/28 07:35:28;;;;;;;10.57;6.50;;;;;;;12.78;100.00;101841.81;7403998;19;20451;-56
2021/09/28 07:37:58;;;;;;;14.90;6.63;;;;;;;12.91;100.00;101832.06;7397067;19;20709;-59
2021/09/28 07:40:27;;;;;;;14.30;7.10;;;;;;;13.03;100.00;101837.88;7404194;19;20459;-57
2021/09/28 07:42:59;;;;;;;12.70;6.30;;;;;;;13.11;100.00;101843.44;7376443;19;20700;-55
2021/09/28 07:45:29;;;;;;;12.10;5.80;;;;;;;12.99;100.00;101835.06;7403622;19;20913;-56
2021/09/28 07:47:58;;;;;;;12.20;5.10;;;;;;;12.92;100.00;101837.34;7400791;19;20421;-54
2021/09/28 07:50:28;;;;;;;11.37;5.63;;;;;;;12.87;100.00;101840.53;7403801;19;20404;-56
2021/09/28 07:52:58;;;;;;;22.67;7.00;;;;;;;13.05;100.00;101835.34;7395347;19;20422;-54
2021/09/28 07:55:28;;;;;;;11.50;5.50;;;;;;;12.96;100.00;101840.97;7403017;19;20388;-58
2021/09/28 07:58:00;;;;;;;14.23;5.73;;;;;;;13.02;100.00;101843.00;7396466;19;20483;-54
2021/09/28 08:00:29;;;;;;;9.57;5.43;;;;;;;13.07;100.00;101842.38;7403665;19;20451;-54
2021/09/28 08:02:59;;;;;;;11.23;4.90;;;;;;;13.09;100.00;101843.34;7376263;19;20427;-55
2021/09/28 08:05:29;;;;;;;9.07;4.47;;;;;;;13.24;100.00;101839.75;7403098;19;20826;-57
2021/09/28 08:07:58;;;;;;;8.10;4.70;;;;;;;13.04;100.00;101843.94;7396532;19;20490;-57
2021/09/28 08:10:28;;;;;;;10.33;4.17;;;;;;;12.98;100.00;101844.53;7404429;19;20395;-56
2021/09/28 08:13:04;;;;;;;13.33;5.17;;;;;;;13.17;100.00;101848.03;7395466;19;20490;-58
2021/09/28 08:15:35;;;;;;;18.37;5.43;;;;;;;13.21;100.00;101842.16;7402662;19;20384;-59
2021/09/28 08:18:05;;;;;;;11.03;6.60;;;;;;;13.18;100.00;101840.31;7395985;19;20434;-53
2021/09/28 08:20:35;;;;;;;8.50;4.40;;;;;;;13.23;100.00;101846.63;7403038;19;20380;-60
2021/09/28 08:23:05;;;;;;;12.80;5.57;;;;;;;13.37;100.00;101844.69;7396981;19;20494;-56
2021/09/28 08:25:48;;;;;;;39.00;22.00;;;;;;;13.64;100.00;101845.94;7402305;19;20853;-52
2021/09/28 08:31:03;;;;;;;14.50;6.23;;;;;;;13.79;100.00;101848.34;7395919;19;20372;-59
2021/09/28 08:33:38;;;;;;;15.13;6.80;;;;;;;13.75;100.00;101849.03;7400929;19;20424;-57
2021/09/28 08:36:08;;;;;;;8.20;3.30;;;;;;;13.66;100.00;101839.13;7395598;19;20732;-58
2021/09/28 08:38:37;;;;;;;7.87;3.60;;;;;;;13.79;100.00;101839.69;7401422;19;20391;-55
2021/09/28 08:41:11;;;;;;;18.63;8.77;;;;;;;14.10;100.00;101839.34;7394676;19;20388;-59
2021/09/28 08:43:43;;;;;;;8.03;3.27;;;;;;;14.01;100.00;101836.38;7400764;19;20853;-59
2021/09/28 08:46:17;;;;;;;6.80;3.63;;;;;;;14.11;100.00;101835.94;7398352;19;20413;-58
2021/09/28 08:48:47;;;;;;;18.97;7.40;;;;;;;14.31;100.00;101833.34;7402129;19;20391;-57
2021/09/28 08:51:17;;;;;;;6.70;3.13;;;;;;;14.27;100.00;101839.22;7395984;19;20474;-57
2021/09/28 08:53:51;;;;;;;5.77;2.30;;;;;;;14.13;100.00;101838.59;7400592;19;20694;-58
2021/09/28 08:56:20;;;;;;;6.57;2.27;;;;;;;14.31;100.00;101830.75;7393417;19;20467;-58
2021/09/28 08:59:02;;;;;;;8.47;2.33;;;;;;;14.41;100.00;101832.03;7401410;19;20725;-60
2021/09/28 09:01:32;;;;;;;5.47;1.90;;;;;;;14.50;100.00;101831.56;7395108;19;20474;-56
2021/09/28 09:04:15;;;;;;;5.57;1.90;;;;;;;14.53;100.00;101829.06;7400077;19;20418;-54
2021/09/28 09:06:45;;;;;;;5.13;1.90;;;;;;;14.74;100.00;101829.13;7394250;19;20494;-58
2021/09/28 09:09:18;;;;;;;5.40;1.80;;;;;;;14.82;100.00;101832.06;7401661;19;20387;-54
2021/09/28 09:11:50;;;;;;;5.70;1.73;;;;;;;14.75;100.00;101830.00;7397958;19;20417;-58
2021/09/28 09:14:25;;;;;;;6.77;1.90;;;;;;;14.94;100.00;101829.06;7399370;19;20416;-57
2021/09/28 09:16:56;;;;;;;3.60;1.43;;;;;;;15.11;100.00;101824.53;7394359;19;20734;-56
2021/09/28 09:19:29;;;;;;;7.90;1.83;;;;;;;15.12;100.00;101823.72;7400599;19;20459;-55
2021/09/28 09:22:02;;;;;;;4.23;1.90;;;;;;;15.22;100.00;101822.34;7393675;19;20498;-59
2021/09/28 09:24:46;;;;;;;5.73;2.00;;;;;;;15.46;100.00;101822.44;7399077;19;20467;-59
2021/09/28 09:27:19;;;;;;;3.77;1.10;;;;;;;15.33;100.00;101822.81;7394511;19;20901;-54
2021/09/28 09:30:10;;;;;;;3.53;1.27;;;;;;;15.51;100.00;101828.72;7400889;19;20392;-60
2021/09/28 09:32:47;;;;;;;9.23;1.90;;;;;;;15.59;100.00;101822.91;7393230;19;20486;-55
2021/09/28 09:35:25;;;;;;;5.43;1.00;;;;;;;15.61;100.00;101827.34;7400639;19;20749;-57
2021/09/28 09:38:06;;;;;;;5.50;0.97;;;;;;;15.62;100.00;101820.41;7394311;19;20681;-52
2021/09/28 09:40:38;;;;;;;6.73;1.30;;;;;;;15.78;100.00;101825.38;7399029;19;20444;-57
2021/09/28 09:43:08;;;;;;;5.63;1.20;;;;;;;16.11;100.00;101828.31;7393073;19;20869;-59
2021/09/28 09:45:40;;;;;;;100.90;59.37;;;;;;;16.24;100.00;101824.44;7399686;19;20388;-57
2021/09/28 09:48:24;;;;;;;7.40;3.43;;;;;;;16.21;100.00;101825.22;7396796;19;20411;-56
2021/09/28 09:50:57;;;;;;;12.43;3.00;;;;;;;16.40;100.00;101820.66;7400068;19;20380;-57
2021/09/28 09:53:27;;;;;;;9.90;1.23;;;;;;;16.17;100.00;101823.31;7396847;19;20409;-58
2021/09/28 09:55:58;;;;;;;7.30;3.00;;;;;;;16.30;100.00;101825.53;7399169;19;20398;-56
2021/09/28 09:58:27;;;;;;;4.00;1.13;;;;;;;16.00;100.00;101823.59;7391556;19;20487;-56
2021/09/28 10:00:59;;;;;;;4.60;1.63;;;;;;;16.15;100.00;101822.41;7398340;19;20690;-57
2021/09/28 10:03:29;;;;;;;5.50;1.17;;;;;;;16.27;100.00;101828.03;7397854;19;20491;-56
2021/09/28 10:05:59;;;;;;;5.57;1.63;;;;;;;16.28;100.00;101831.50;7396229;19;20400;-55
2021/09/28 10:08:28;;;;;;;3.10;1.00;;;;;;;16.40;100.00;101829.34;7398864;19;20398;-59
2021/09/28 10:11:00;;;;;;;7.10;1.20;;;;;;;16.28;100.00;101827.19;7397771;19;20405;-60
2021/09/28 10:13:52;;;;;;;4.83;1.00;;;;;;;16.69;100.00;101818.13;7398017;19;20491;-55
2021/09/28 10:16:38;;;;;;;9.33;2.60;;;;;;;17.01;100.00;101810.47;7391636;19;20415;-59
2021/09/28 10:19:56;;;;;;;9.03;3.63;;;;;;;16.99;100.00;101817.38;7399410;19;20392;-59
2021/09/28 10:22:52;;;;;;;14.53;6.40;;;;;;;17.25;100.00;101805.19;7389863;19;20478;-59
2021/09/28 10:25:47;;;;;;;8.57;2.90;;;;;;;17.14;100.00;101810.06;7398852;19;20391;-58
2021/09/28 10:28:41;;;;;;;5.03;1.17;;;;;;;17.09;100.00;101819.47;7392051;19;20403;-57
2021/09/28 10:31:17;;;;;;;6.87;1.90;;;;;;;17.35;100.00;101811.59;7396342;19;20648;-58
2021/09/28 10:33:58;;;;;;;5.87;1.00;;;;;;;16.94;100.00;101824.16;7397744;19;20446;-57
2021/09/28 10:36:27;;;;;;;4.70;1.00;;;;;;;17.03;100.00;101808.84;7394499;19;20408;-56
2021/09/28 10:39:02;;;;;;;7.73;2.70;;;;;;;17.20;100.00;101811.09;7398609;19;20379;-58
2021/09/28 10:41:39;;;;;;;7.73;2.03;;;;;;;17.38;100.00;101816.88;7390797;19;20444;-54
2021/09/28 10:44:39;;;;;;;4.60;0.90;;;;;;;17.24;100.00;101816.44;7396966;19;20708;-59
2021/09/28 10:47:11;;;;;;;10.70;2.30;;;;;;;17.43;100.00;101811.78;7391143;19;20408;-58
2021/09/28 10:49:43;;;;;;;7.00;2.80;;;;;;;17.67;100.00;101809.03;7398405;19;20463;-58
2021/09/28 10:52:40;;;;;;;4.73;1.10;;;;;;;17.18;100.00;101818.00;7390255;19;20417;-57
2021/09/28 10:55:24;;;;;;;5.60;0.80;;;;;;;17.29;100.00;101816.59;7398302;19;20387;-56
2021/09/28 10:58:09;;;;;;;4.97;1.50;;;;;;;17.54;100.00;101817.34;7391196;19;20494;-59
2021/09/28 11:01:08;;;;;;;9.33;1.20;;;;;;;17.55;100.00;101811.28;7397159;19;20409;-56
2021/09/28 11:03:51;;;;;;;3.80;0.60;;;;;;;17.37;100.00;101807.28;7394370;19;20466;-54
2021/09/28 11:06:54;;;;;;;5.20;1.53;;;;;;;17.80;100.00;101818.09;7397853;19;20434;-57
2021/09/28 11:09:26;;;;;;;4.13;1.53;;;;;;;17.91;100.00;101804.47;7405634;19;20443;-59
2021/09/28 11:11:59;;;;;;;3.57;0.80;;;;;;;17.81;100.00;101808.56;7376544;19;20425;-57
2021/09/28 11:14:28;;;;;;;6.43;1.60;;;;;;;17.95;100.00;101806.34;7402571;19;20440;-57
2021/09/28 11:17:01;;;;;;;3.73;0.70;;;;;;;18.05;100.00;101804.88;7397935;19;20415;-56
2021/09/28 11:19:40;;;;;;;3.50;1.17;;;;;;;17.91;100.00;101796.63;7409254;19;20416;-59
2021/09/28 11:22:19;;;;;;;5.00;1.30;;;;;;;17.99;100.00;101799.47;7398068;19;20448;-56
2021/09/28 11:24:49;;;;;;;2.97;0.80;;;;;;;18.04;100.00;101797.84;7404963;19;20412;-57
2021/09/28 11:27:19;;;;;;;3.50;0.90;;;;;;;18.03;100.00;101790.84;7397265;19;20486;-60
2021/09/28 11:29:48;;;;;;;4.70;0.90;;;;;;;18.03;100.00;101794.38;7405212;19;20383;-57
2021/09/28 11:32:18;;;;;;;3.33;0.70;;;;;;;18.07;100.00;101798.88;7372014;19;20416;-56
2021/09/28 11:34:48;;;;;;;3.90;0.80;;;;;;;18.11;100.00;101791.09;7404196;19;20380;-57
2021/09/28 11:37:24;;;;;;;4.70;0.80;;;;;;;18.22;100.00;101805.34;7383677;19;20498;-57
2021/09/28 11:39:54;;;;;;;4.33;0.93;;;;;;;18.25;100.00;101794.09;7404397;19;20629;-59